createdAt,value
2022-11-10T00:01:10.055Z,0.30
2022-11-10T00:03:39.820Z,0.30
2022-11-10T00:06:09.689Z,0.40
2022-11-10T00:08:37.775Z,0.40
2022-11-10T00:11:07.551Z,0.50
2022-11-10T00:13:38.229Z,0.30
2022-11-10T00:16:06.628Z,0.40
2022-11-10T00:18:34.804Z,0.80
2022-11-10T00:21:08.599Z,0.30
2022-11-10T00:23:38.760Z,0.20
2022-11-10T00:26:16.500Z,0.40
2022-11-10T00:28:45.586Z,0.30
2022-11-10T00:31:13.891Z,0.20
2022-11-10T00:33:44.101Z,0.30
2022-11-10T00:36:12.486Z,0.20
2022-11-10T00:38:40.566Z,0.20
2022-11-10T00:41:08.662Z,0.40
2022-11-10T00:43:36.712Z,0.40
2022-11-10T00:46:04.820Z,0.30
2022-11-10T00:48:32.980Z,0.40
2022-11-10T00:51:01.357Z,0.20
2022-11-10T00:53:29.539Z,0.40
2022-11-10T00:55:57.892Z,0.30
2022-11-10T00:58:26.306Z,0.30
2022-11-10T01:01:01.658Z,0.20
2022-11-10T01:03:29.968Z,0.20
2022-11-10T01:05:57.970Z,0.40
2022-11-10T01:08:26.043Z,0.20
2022-11-10T01:11:02.099Z,0.20
2022-11-10T01:13:30.848Z,0.20
2022-11-10T01:16:07.856Z,0.20
2022-11-10T01:18:36.962Z,0.30
2022-11-10T01:21:06.200Z,0.40
2022-11-10T01:23:35.615Z,0.20
2022-11-10T01:26:06.945Z,0.20
2022-11-10T01:28:36.813Z,0.30
2022-11-10T01:31:11.540Z,0.30
2022-11-10T01:33:40.626Z,0.30
2022-11-10T01:36:10.643Z,0.30
2022-11-10T01:38:40.903Z,0.20
2022-11-10T01:41:12.862Z,0.20
2022-11-10T01:43:42.143Z,0.30
2022-11-10T01:46:13.097Z,0.20
2022-11-10T01:48:46.951Z,0.20
2022-11-10T01:51:23.970Z,0.30
2022-11-10T01:54:06.440Z,0.20
2022-11-10T01:56:42.409Z,0.40
2022-11-10T01:59:14.878Z,0.30
2022-11-10T02:01:46.591Z,0.20
2022-11-10T02:04:19.323Z,0.30
2022-11-10T02:06:50.061Z,0.30
2022-11-10T02:09:19.050Z,0.30
2022-11-10T02:11:51.727Z,0.20
2022-11-10T02:14:20.195Z,0.30
2022-11-10T02:16:48.346Z,0.40
2022-11-10T02:19:25.999Z,0.20
2022-11-10T02:21:54.563Z,0.40
2022-11-10T02:24:22.719Z,0.30
2022-11-10T02:26:54.705Z,0.30
2022-11-10T02:29:24.192Z,0.20
2022-11-10T02:31:52.567Z,0.20
2022-11-10T02:34:20.688Z,0.30
2022-11-10T02:36:48.860Z,0.20
2022-11-10T02:39:16.880Z,0.30
2022-11-10T02:41:45.079Z,0.20
2022-11-10T02:44:13.247Z,0.40
2022-11-10T02:46:41.630Z,0.20
2022-11-10T02:49:10.334Z,0.30
2022-11-10T02:51:38.414Z,0.30
2022-11-10T02:54:06.488Z,0.30
2022-11-10T02:56:34.792Z,0.20
2022-11-10T02:59:03.599Z,0.20
2022-11-10T03:01:32.728Z,0.50
2022-11-10T03:04:01.436Z,0.70
2022-11-10T03:06:29.789Z,0.40
2022-11-10T03:08:58.509Z,0.30
2022-11-10T03:11:30.994Z,0.30
2022-11-10T03:14:02.324Z,0.30
2022-11-10T03:16:31.055Z,0.50
2022-11-10T03:18:59.346Z,0.50
2022-11-10T03:21:27.408Z,0.30
2022-11-10T03:23:55.588Z,0.30
2022-11-10T03:26:23.656Z,0.30
2022-11-10T03:28:51.754Z,0.30
2022-11-10T03:31:20.016Z,0.40
2022-11-10T03:33:48.069Z,0.20
2022-11-10T03:36:16.197Z,0.40
2022-11-10T03:38:44.296Z,0.30
2022-11-10T03:41:19.241Z,0.30
2022-11-10T03:43:49.330Z,0.30
2022-11-10T03:46:18.408Z,0.30
2022-11-10T03:48:52.978Z,0.30
2022-11-10T03:51:23.775Z,0.40
2022-11-10T03:53:51.837Z,0.50
2022-11-10T03:56:20.237Z,0.40
2022-11-10T03:58:48.365Z,0.30
2022-11-10T04:01:16.527Z,0.30
2022-11-10T04:03:50.189Z,0.30
2022-11-10T04:06:20.030Z,0.20
2022-11-10T04:08:48.175Z,0.30
2022-11-10T04:11:16.470Z,0.30
2022-11-10T04:13:44.581Z,0.40
2022-11-10T04:16:13.055Z,0.30
2022-11-10T04:18:41.086Z,0.30
2022-11-10T04:21:09.241Z,0.30
2022-11-10T04:23:37.308Z,0.50
2022-11-10T04:26:11.455Z,0.40
2022-11-10T04:28:39.613Z,0.40
2022-11-10T04:31:11.561Z,0.40
2022-11-10T04:33:41.271Z,0.40
2022-11-10T04:36:10.966Z,0.40
2022-11-10T04:38:39.041Z,0.30
2022-11-10T04:41:08.177Z,0.30
2022-11-10T04:43:36.935Z,0.30
2022-11-10T04:46:06.732Z,0.30
2022-11-10T04:48:36.126Z,0.40
2022-11-10T04:51:05.909Z,0.40
2022-11-10T04:53:34.075Z,0.30
2022-11-10T04:56:02.633Z,0.40
2022-11-10T04:58:31.018Z,0.40
2022-11-10T05:00:59.104Z,0.40
2022-11-10T05:03:27.277Z,0.40
2022-11-10T05:05:55.588Z,0.40
2022-11-10T05:08:23.644Z,0.40
2022-11-10T05:10:51.781Z,0.40
2022-11-10T05:13:20.177Z,0.40
2022-11-10T05:15:48.550Z,0.50
2022-11-10T05:18:16.987Z,0.40
2022-11-10T05:20:45.127Z,0.50
2022-11-10T05:23:13.310Z,0.30
2022-11-10T05:25:43.325Z,0.50
2022-11-10T05:28:12.983Z,0.40
2022-11-10T05:30:41.037Z,0.40
2022-11-10T05:33:09.816Z,0.50
2022-11-10T05:35:38.277Z,0.60
2022-11-10T05:38:07.314Z,0.60
2022-11-10T05:40:35.501Z,0.40
2022-11-10T05:43:03.655Z,0.50
2022-11-10T05:45:31.917Z,0.60
2022-11-10T05:48:00.113Z,0.50
2022-11-10T05:50:28.095Z,0.60
2022-11-10T05:52:56.437Z,0.40
2022-11-10T05:55:27.598Z,0.70
2022-11-10T05:57:57.192Z,0.60
2022-11-10T06:00:27.952Z,0.40
2022-11-10T06:03:07.834Z,0.70
2022-11-10T06:05:36.516Z,0.70
2022-11-10T06:08:06.279Z,0.50
2022-11-10T06:10:36.016Z,0.50
2022-11-10T06:13:04.673Z,0.80
2022-11-10T06:15:32.824Z,0.60
2022-11-10T06:18:00.979Z,0.80
2022-11-10T06:20:29.412Z,0.70
2022-11-10T06:23:10.171Z,0.60
2022-11-10T06:25:39.885Z,0.50
2022-11-10T06:28:09.423Z,0.60
2022-11-10T06:30:38.504Z,0.60
2022-11-10T06:33:07.194Z,0.70
2022-11-10T06:35:35.290Z,0.60
2022-11-10T06:38:10.198Z,1.20
2022-11-10T06:40:38.615Z,0.70
2022-11-10T06:43:06.739Z,0.70
2022-11-10T06:45:34.958Z,0.90
2022-11-10T06:48:09.812Z,0.90
2022-11-10T06:50:38.016Z,0.70
2022-11-10T06:53:06.226Z,0.70
2022-11-10T06:55:34.347Z,0.80
2022-11-10T06:58:02.708Z,0.60
2022-11-10T07:00:31.429Z,0.70
2022-11-10T07:03:08.853Z,1.30
2022-11-10T07:05:37.317Z,0.80
2022-11-10T07:08:16.401Z,1.10
2022-11-10T07:10:51.227Z,1.30
2022-11-10T07:13:19.733Z,1.00
2022-11-10T07:15:48.752Z,0.70
2022-11-10T07:18:19.861Z,0.90
2022-11-10T07:20:48.051Z,1.00
2022-11-10T07:23:16.710Z,1.30
2022-11-10T07:25:45.084Z,1.20
2022-11-10T07:28:13.187Z,1.50
2022-11-10T07:30:41.357Z,1.40
2022-11-10T07:33:15.044Z,1.20
2022-11-10T07:35:43.347Z,1.30
2022-11-10T07:38:13.252Z,1.10
2022-11-10T07:40:41.751Z,0.90
2022-11-10T07:43:09.860Z,1.30
2022-11-10T07:45:38.180Z,1.20
2022-11-10T07:48:07.854Z,1.30
2022-11-10T07:50:36.367Z,1.30
2022-11-10T07:53:11.265Z,1.60
2022-11-10T07:55:41.521Z,1.90
2022-11-10T07:58:12.136Z,1.70
2022-11-10T08:00:41.136Z,1.70
2022-11-10T08:03:15.243Z,1.70
2022-11-10T08:05:43.878Z,1.90
2022-11-10T08:08:13.697Z,2.00
2022-11-10T08:10:42.621Z,1.90
2022-11-10T08:13:13.336Z,2.20
2022-11-10T08:15:42.023Z,2.30
2022-11-10T08:18:17.773Z,3.70
2022-11-10T08:20:46.436Z,7.10
2022-11-10T08:23:14.893Z,4.50
2022-11-10T08:25:43.393Z,2.40
2022-11-10T08:28:14.320Z,2.30
2022-11-10T08:30:45.820Z,2.90
2022-11-10T08:33:16.941Z,2.10
2022-11-10T08:35:47.926Z,3.20
2022-11-10T08:38:17.412Z,2.40
2022-11-10T08:40:46.259Z,2.00
2022-11-10T08:43:15.338Z,2.10
2022-11-10T08:45:44.737Z,2.10
2022-11-10T08:48:19.163Z,1.60
2022-11-10T08:50:48.773Z,1.70
2022-11-10T08:53:20.910Z,1.80
2022-11-10T08:55:50.450Z,1.20
2022-11-10T08:58:22.252Z,1.80
2022-11-10T09:00:51.691Z,1.90
2022-11-10T09:03:23.648Z,1.60
2022-11-10T09:05:57.946Z,1.80
2022-11-10T09:08:26.713Z,1.50
2022-11-10T09:10:54.917Z,1.60
2022-11-10T09:13:28.950Z,1.40
2022-11-10T09:16:05.580Z,4.00
2022-11-10T09:18:34.043Z,1.20
2022-11-10T09:21:04.543Z,1.50
2022-11-10T09:23:33.041Z,1.40
2022-11-10T09:26:01.239Z,1.20
2022-11-10T09:28:29.298Z,1.40
2022-11-10T09:30:57.456Z,2.20
2022-11-10T09:33:26.065Z,1.40
2022-11-10T09:35:58.999Z,1.30
2022-11-10T09:38:27.073Z,1.70
2022-11-10T09:41:08.492Z,1.80
2022-11-10T09:44:01.394Z,1.50
2022-11-10T09:46:40.059Z,1.40
2022-11-10T09:49:19.954Z,1.40
2022-11-10T09:51:49.211Z,1.20
2022-11-10T09:54:37.160Z,1.30
2022-11-10T09:57:08.188Z,1.30
2022-11-10T09:59:37.092Z,1.50
2022-11-10T10:02:30.593Z,1.20
2022-11-10T10:05:07.475Z,1.20
2022-11-10T10:08:04.838Z,1.30
2022-11-10T10:10:44.318Z,1.00
2022-11-10T10:13:15.468Z,1.10
2022-11-10T10:16:04.909Z,0.90
2022-11-10T10:18:59.235Z,1.20
2022-11-10T10:21:45.694Z,0.80
2022-11-10T10:24:21.796Z,0.90
2022-11-10T10:26:59.149Z,1.00
2022-11-10T10:29:42.628Z,1.10
2022-11-10T10:32:15.105Z,0.90
2022-11-10T10:34:45.431Z,1.20
2022-11-10T10:37:41.273Z,1.00
2022-11-10T10:40:16.573Z,0.80
2022-11-10T10:42:44.868Z,0.80
2022-11-10T10:45:24.537Z,1.20
2022-11-10T10:47:55.344Z,1.10
2022-11-10T10:50:32.602Z,1.40
2022-11-10T10:53:22.959Z,1.50
2022-11-10T10:56:07.356Z,1.30
2022-11-10T10:58:57.253Z,1.10
2022-11-10T11:01:34.689Z,1.00
2022-11-10T11:04:26.036Z,1.40
2022-11-10T11:07:05.455Z,1.00
2022-11-10T11:09:42.742Z,1.20
2022-11-10T11:12:14.571Z,0.90
2022-11-10T11:14:45.978Z,1.00
2022-11-10T11:17:22.578Z,1.00
2022-11-10T11:19:53.441Z,1.10
2022-11-10T11:22:35.893Z,1.30
2022-11-10T11:25:28.829Z,1.30
2022-11-10T11:28:07.434Z,1.40
2022-11-10T11:30:50.766Z,1.30
2022-11-10T11:33:26.928Z,1.20
2022-11-10T11:36:02.947Z,1.30
2022-11-10T11:38:50.085Z,1.10
2022-11-10T11:42:03.353Z,1.00
2022-11-10T11:44:56.746Z,1.20
2022-11-10T11:48:02.798Z,2.30
2022-11-10T11:50:40.480Z,1.20
2022-11-10T11:53:23.777Z,1.00
2022-11-10T11:56:04.230Z,1.10
2022-11-10T11:59:09.090Z,1.20
2022-11-10T12:02:04.916Z,1.20
2022-11-10T12:04:55.146Z,1.20
2022-11-10T12:07:26.584Z,1.00
2022-11-10T12:10:02.203Z,1.00
2022-11-10T12:12:59.718Z,1.30
2022-11-10T12:15:52.881Z,1.10
2022-11-10T12:18:37.925Z,0.90
2022-11-10T12:21:18.392Z,1.00
2022-11-10T12:23:55.641Z,1.00
2022-11-10T12:27:02.647Z,1.10
2022-11-10T12:29:45.143Z,1.20
2022-11-10T12:32:25.800Z,1.00
2022-11-10T12:35:07.697Z,0.90
2022-11-10T12:37:42.646Z,1.00
2022-11-10T12:40:19.714Z,1.10
2022-11-10T12:43:40.584Z,1.10
2022-11-10T12:46:13.172Z,1.00
2022-11-10T12:49:17.023Z,0.90
2022-11-10T12:52:00.691Z,0.90
2022-11-10T12:54:29.689Z,1.00
2022-11-10T12:57:03.289Z,0.80
2022-11-10T12:59:37.040Z,0.80
2022-11-10T13:02:17.969Z,0.80
2022-11-10T13:04:46.046Z,1.10
2022-11-10T13:07:14.378Z,0.80
2022-11-10T13:09:44.567Z,0.80
2022-11-10T13:12:26.742Z,0.80
2022-11-10T13:14:55.226Z,0.80
2022-11-10T13:17:26.479Z,0.80
2022-11-10T13:20:09.593Z,0.80
2022-11-10T13:22:47.908Z,1.00
2022-11-10T13:25:38.090Z,0.70
2022-11-10T13:28:09.963Z,0.70
2022-11-10T13:30:42.328Z,0.70
2022-11-10T13:33:25.749Z,0.70
2022-11-10T13:35:56.551Z,0.60
2022-11-10T13:38:33.891Z,1.00
2022-11-10T13:41:21.933Z,0.90
2022-11-10T13:43:53.555Z,1.00
2022-11-10T13:46:52.102Z,0.90
2022-11-10T13:49:32.381Z,1.00
2022-11-10T13:52:53.164Z,1.00
2022-11-10T13:55:40.763Z,0.80
2022-11-10T13:58:26.033Z,0.90
2022-11-10T14:01:19.402Z,0.80
2022-11-10T14:03:47.860Z,1.30
2022-11-10T14:06:24.259Z,1.20
2022-11-10T14:09:10.131Z,1.50
2022-11-10T14:11:49.750Z,2.50
2022-11-10T14:14:21.737Z,1.60
2022-11-10T14:16:50.324Z,1.80
2022-11-10T14:19:39.584Z,1.60
2022-11-10T14:22:43.065Z,1.50
2022-11-10T14:25:33.786Z,2.00
2022-11-10T14:28:03.953Z,1.40
2022-11-10T14:30:32.737Z,1.40
2022-11-10T14:33:05.781Z,1.40
2022-11-10T14:35:53.855Z,1.70
2022-11-10T14:38:30.412Z,1.70
2022-11-10T14:41:01.371Z,1.50
2022-11-10T14:43:33.791Z,1.30
2022-11-10T14:46:04.089Z,1.00
2022-11-10T14:48:35.704Z,1.10
2022-11-10T14:51:07.859Z,1.40
2022-11-10T14:53:40.505Z,1.20
2022-11-10T14:56:17.835Z,1.20
2022-11-10T14:58:48.548Z,1.00
2022-11-10T15:01:38.309Z,1.60
2022-11-10T15:04:11.705Z,1.20
2022-11-10T15:06:45.828Z,0.90
2022-11-10T15:09:22.600Z,1.00
2022-11-10T15:12:02.286Z,1.30
2022-11-10T15:14:36.253Z,1.20
2022-11-10T15:17:10.565Z,1.40
2022-11-10T15:20:00.238Z,1.20
2022-11-10T15:22:31.174Z,1.20
2022-11-10T15:25:14.086Z,1.60
2022-11-10T15:27:52.703Z,1.20
2022-11-10T15:30:26.188Z,1.90
2022-11-10T15:32:59.425Z,1.60
2022-11-10T15:35:31.980Z,1.50
2022-11-10T15:38:24.479Z,1.40
2022-11-10T15:41:04.153Z,1.40
2022-11-10T15:43:32.325Z,1.50
2022-11-10T15:46:17.486Z,1.70
2022-11-10T15:48:49.206Z,1.30
2022-11-10T15:51:25.621Z,1.40
2022-11-10T15:53:54.615Z,1.10
2022-11-10T15:56:24.858Z,1.30
2022-11-10T15:58:56.472Z,1.50
2022-11-10T16:01:27.607Z,0.80
2022-11-10T16:03:56.082Z,1.30
2022-11-10T16:06:24.205Z,1.50
2022-11-10T16:08:52.691Z,1.40
2022-11-10T16:11:22.203Z,1.30
2022-11-10T16:13:52.125Z,1.40
2022-11-10T16:16:20.711Z,1.10
2022-11-10T16:18:48.988Z,2.00
2022-11-10T16:21:20.407Z,1.40
2022-11-10T16:23:49.441Z,1.30
2022-11-10T16:26:20.909Z,1.10
2022-11-10T16:28:50.304Z,1.20
2022-11-10T16:31:20.671Z,1.00
2022-11-10T16:45:31.669Z,0.80
2022-11-10T16:48:00.015Z,1.10
2022-11-10T16:50:36.473Z,0.70
2022-11-10T16:53:06.886Z,0.80
2022-11-10T16:55:35.081Z,0.90
2022-11-10T16:58:03.602Z,0.80
2022-11-10T17:00:33.076Z,1.00
2022-11-10T17:03:15.431Z,0.90
2022-11-10T17:05:43.999Z,0.70
2022-11-10T17:08:21.901Z,0.80
2022-11-10T17:10:51.478Z,0.80
2022-11-10T17:13:19.652Z,0.90
2022-11-10T17:15:48.239Z,0.90
2022-11-10T17:18:20.373Z,0.60
2022-11-10T17:20:51.685Z,0.80
2022-11-10T17:23:25.299Z,0.80
2022-11-10T17:25:54.899Z,0.90
2022-11-10T17:28:23.390Z,0.90
2022-11-10T17:30:52.067Z,0.90
2022-11-10T17:33:20.918Z,0.80
2022-11-10T17:35:53.028Z,0.80
2022-11-10T17:38:30.719Z,0.80
2022-11-10T17:40:59.190Z,0.90
2022-11-10T17:43:27.321Z,0.60
2022-11-10T17:45:55.654Z,0.60
2022-11-10T17:48:24.050Z,0.70
2022-11-10T17:50:52.219Z,0.80
2022-11-10T17:53:27.923Z,0.90
2022-11-10T17:55:56.362Z,0.90
2022-11-10T17:58:25.455Z,0.70
2022-11-10T18:00:53.743Z,0.80
2022-11-10T18:03:23.112Z,0.70
2022-11-10T18:05:51.923Z,0.80
2022-11-10T18:08:20.715Z,0.80
2022-11-10T18:10:51.556Z,0.60
2022-11-10T18:13:19.814Z,0.80
2022-11-10T18:15:48.873Z,0.70
2022-11-10T18:18:18.040Z,0.50
2022-11-10T18:20:46.423Z,0.70
2022-11-10T18:23:14.598Z,0.50
2022-11-10T18:25:43.283Z,0.40
2022-11-10T18:28:14.728Z,0.70
2022-11-10T18:30:43.024Z,0.90
2022-11-10T18:33:12.251Z,0.50
2022-11-10T18:35:40.915Z,0.50
2022-11-10T18:38:11.951Z,0.60
2022-11-10T18:40:40.147Z,0.80
2022-11-10T18:43:08.723Z,0.60
2022-11-10T18:45:36.796Z,0.50
2022-11-10T18:48:05.340Z,0.50
2022-11-10T18:50:33.560Z,0.40
2022-11-10T18:53:03.273Z,0.50
2022-11-10T18:55:31.556Z,0.50
2022-11-10T18:57:59.743Z,0.40
2022-11-10T19:00:28.113Z,0.40
2022-11-10T19:02:56.296Z,0.40
2022-11-10T19:05:24.491Z,0.50
2022-11-10T19:07:52.661Z,1.00
2022-11-10T19:10:20.936Z,0.90
2022-11-10T19:12:49.218Z,0.70
2022-11-10T19:15:17.700Z,0.70
2022-11-10T19:17:45.879Z,0.60
2022-11-10T19:20:15.895Z,0.40
2022-11-10T19:22:43.972Z,0.80
2022-11-10T19:25:12.156Z,0.50
2022-11-10T19:27:40.429Z,0.40
2022-11-10T19:30:09.241Z,0.70
2022-11-10T19:32:37.815Z,0.50
2022-11-10T19:35:06.623Z,0.60
2022-11-10T19:37:35.063Z,0.60
2022-11-10T19:40:04.027Z,0.70
2022-11-10T19:42:33.083Z,0.70
2022-11-10T19:45:01.168Z,0.70
2022-11-10T19:47:32.100Z,0.90
2022-11-10T19:50:00.382Z,0.80
2022-11-10T19:52:29.586Z,1.00
2022-11-10T19:54:57.967Z,0.90
2022-11-10T19:57:26.333Z,0.70
2022-11-10T19:59:55.040Z,1.00
2022-11-10T20:02:23.549Z,0.80
2022-11-10T20:04:51.881Z,0.90
2022-11-10T20:07:20.107Z,0.70
2022-11-10T20:09:48.774Z,0.80
2022-11-10T20:12:17.055Z,1.00
2022-11-10T20:14:45.540Z,0.80
2022-11-10T20:17:13.820Z,1.50
2022-11-10T20:19:42.612Z,1.00
2022-11-10T20:22:11.202Z,0.80
2022-11-10T20:24:39.383Z,1.00
2022-11-10T20:27:07.776Z,1.10
2022-11-10T20:29:36.050Z,1.00
2022-11-10T20:32:04.327Z,0.80
2022-11-10T20:34:32.709Z,0.90
2022-11-10T20:37:00.891Z,1.20
2022-11-10T20:39:29.376Z,0.90
2022-11-10T20:41:57.967Z,0.90
2022-11-10T20:44:26.237Z,1.60
2022-11-10T20:46:55.564Z,1.50
2022-11-10T20:49:24.541Z,1.60
2022-11-10T20:51:52.733Z,1.60
2022-11-10T20:54:21.000Z,1.20
2022-11-10T20:56:49.119Z,1.00
2022-11-10T20:59:17.471Z,0.90
2022-11-10T21:01:45.885Z,0.70
2022-11-10T21:04:14.328Z,1.30
2022-11-10T21:06:42.570Z,2.50
2022-11-10T21:09:10.892Z,1.80
2022-11-10T21:11:39.373Z,1.70
2022-11-10T21:14:07.856Z,1.50
2022-11-10T21:16:35.954Z,1.20
2022-11-10T21:19:04.625Z,0.70
2022-11-10T21:21:32.827Z,0.80
2022-11-10T21:24:02.337Z,0.90
2022-11-10T21:26:32.384Z,1.00
2022-11-10T21:29:01.019Z,0.90
2022-11-10T21:31:29.403Z,1.00
2022-11-10T21:33:59.114Z,1.10
2022-11-10T21:36:28.421Z,0.80
2022-11-10T21:38:57.682Z,0.80
2022-11-10T21:41:27.142Z,0.70
2022-11-10T21:43:55.309Z,0.80
2022-11-10T21:46:23.998Z,0.80
2022-11-10T21:48:52.728Z,0.80
2022-11-10T21:51:20.988Z,0.70
2022-11-10T21:53:49.249Z,0.80
2022-11-10T21:56:20.448Z,0.90
2022-11-10T21:58:48.581Z,1.20
2022-11-10T22:01:18.391Z,1.30
2022-11-10T22:03:47.494Z,1.40
2022-11-10T22:06:18.333Z,1.00
2022-11-10T22:08:48.253Z,0.90
2022-11-10T22:11:20.037Z,1.10
2022-11-10T22:13:49.529Z,1.00
2022-11-10T22:16:27.688Z,1.20
2022-11-10T22:18:55.935Z,0.80
2022-11-10T22:21:24.286Z,0.60
2022-11-10T22:23:52.978Z,0.80
2022-11-10T22:26:21.710Z,0.90
2022-11-10T22:28:49.843Z,0.80
2022-11-10T22:31:18.026Z,1.00
2022-11-10T22:33:46.323Z,1.00
2022-11-10T22:36:16.685Z,0.70
2022-11-10T22:38:44.919Z,0.80
2022-11-10T22:41:15.375Z,0.90
2022-11-10T22:43:44.054Z,0.60
2022-11-10T22:46:12.216Z,1.30
2022-11-10T22:48:40.489Z,0.90
2022-11-10T22:51:08.664Z,0.60
2022-11-10T22:53:37.455Z,0.60
2022-11-10T22:56:06.454Z,0.90
2022-11-10T22:58:34.736Z,1.00
2022-11-10T23:01:07.860Z,0.70
2022-11-10T23:03:37.333Z,0.90
2022-11-10T23:06:06.198Z,0.90
2022-11-10T23:08:34.507Z,0.70
2022-11-10T23:11:04.328Z,0.60
2022-11-10T23:13:36.964Z,0.60
2022-11-10T23:16:16.986Z,0.50
2022-11-10T23:18:46.916Z,0.70
2022-11-10T23:21:17.191Z,0.60
2022-11-10T23:23:46.808Z,0.60
2022-11-10T23:26:23.584Z,0.70
2022-11-10T23:28:53.298Z,0.60
2022-11-10T23:31:25.059Z,0.80
2022-11-10T23:33:55.919Z,0.60
2022-11-10T23:36:26.631Z,0.70
2022-11-10T23:38:55.582Z,1.10
2022-11-10T23:41:24.434Z,0.60
2022-11-10T23:43:53.317Z,0.60
2022-11-10T23:46:21.645Z,0.70
2022-11-10T23:48:49.978Z,0.60
2022-11-10T23:51:18.157Z,0.50
2022-11-10T23:53:48.077Z,0.60
2022-11-10T23:56:16.258Z,1.00
2022-11-10T23:58:44.436Z,0.70
